createdAt,value
2022-11-15T00:00:12.341Z,63.15
2022-11-15T00:02:41.412Z,62.80
2022-11-15T00:05:11.439Z,62.53
2022-11-15T00:07:55.186Z,62.50
2022-11-15T00:10:24.886Z,61.75
2022-11-15T00:12:54.348Z,61.94
2022-11-15T00:15:23.362Z,62.23
2022-11-15T00:17:52.729Z,61.32
2022-11-15T00:20:23.242Z,61.23
2022-11-15T00:22:52.110Z,61.17
2022-11-15T00:25:21.135Z,61.18
2022-11-15T00:27:49.867Z,61.13
2022-11-15T00:30:18.851Z,61.19
2022-11-15T00:32:47.745Z,61.34
2022-11-15T00:35:30.010Z,61.33
2022-11-15T00:38:00.585Z,61.45
2022-11-15T00:40:29.537Z,61.51
2022-11-15T00:42:58.525Z,61.67
2022-11-15T00:45:28.219Z,61.58
2022-11-15T00:47:57.253Z,61.52
2022-11-15T00:50:26.176Z,61.46
2022-11-15T00:52:55.252Z,61.53
2022-11-15T00:55:25.762Z,61.51
2022-11-15T00:57:54.795Z,61.55
2022-11-15T01:00:23.645Z,61.52
2022-11-15T01:02:52.990Z,61.67
2022-11-15T01:05:24.491Z,61.67
2022-11-15T01:07:57.219Z,61.84
2022-11-15T01:10:27.249Z,61.63
2022-11-15T01:12:56.062Z,61.56
2022-11-15T01:15:25.049Z,61.77
2022-11-15T01:17:53.813Z,61.89
2022-11-15T01:20:22.874Z,61.72
2022-11-15T01:22:51.925Z,61.50
2022-11-15T01:25:26.294Z,61.54
2022-11-15T01:27:56.338Z,61.49
2022-11-15T01:30:25.236Z,61.61
2022-11-15T01:32:53.866Z,61.55
2022-11-15T01:35:22.833Z,61.43
2022-11-15T01:37:51.616Z,61.50
2022-11-15T01:40:20.714Z,61.22
2022-11-15T01:42:49.578Z,61.26
2022-11-15T01:45:20.088Z,61.16
2022-11-15T01:47:55.000Z,61.35
2022-11-15T01:50:28.325Z,61.11
2022-11-15T01:52:57.599Z,60.99
2022-11-15T01:55:30.607Z,60.91
2022-11-15T01:58:03.620Z,60.78
2022-11-15T02:00:34.557Z,60.73
2022-11-15T02:03:04.788Z,60.61
2022-11-15T02:05:34.135Z,60.74
2022-11-15T02:08:04.171Z,60.73
2022-11-15T02:10:33.156Z,60.83
2022-11-15T02:13:03.732Z,60.81
2022-11-15T02:15:42.901Z,60.66
2022-11-15T02:18:20.387Z,60.78
2022-11-15T02:21:05.780Z,60.71
2022-11-15T02:23:59.724Z,60.90
2022-11-15T02:27:00.632Z,60.40
2022-11-15T02:29:44.914Z,60.31
2022-11-15T02:32:21.471Z,60.24
2022-11-15T02:34:58.016Z,60.03
2022-11-15T02:37:35.082Z,60.27
2022-11-15T02:40:12.067Z,60.36
2022-11-15T02:43:08.301Z,60.25
2022-11-15T02:45:42.694Z,60.00
2022-11-15T02:48:14.877Z,59.98
2022-11-15T02:50:45.387Z,59.94
2022-11-15T02:53:14.691Z,60.00
2022-11-15T02:55:49.867Z,59.94
2022-11-15T02:58:35.781Z,60.12
2022-11-15T03:01:12.395Z,60.42
2022-11-15T03:03:56.356Z,60.59
2022-11-15T03:06:35.739Z,61.00
2022-11-15T03:09:10.883Z,61.24
2022-11-15T03:11:45.135Z,61.25
2022-11-15T03:14:24.078Z,61.89
2022-11-15T03:17:01.123Z,62.25
2022-11-15T03:19:37.221Z,62.59
2022-11-15T03:22:10.324Z,62.81
2022-11-15T03:24:40.300Z,63.21
2022-11-15T03:27:09.878Z,63.44
2022-11-15T03:29:40.900Z,63.89
2022-11-15T03:32:13.311Z,64.11
2022-11-15T03:34:46.836Z,64.32
2022-11-15T03:37:16.704Z,64.32
2022-11-15T03:39:44.940Z,64.46
2022-11-15T03:42:23.477Z,65.09
2022-11-15T03:44:57.889Z,65.07
2022-11-15T03:47:29.428Z,65.15
2022-11-15T03:50:04.211Z,65.45
2022-11-15T03:52:36.023Z,65.39
2022-11-15T03:55:06.041Z,65.36
2022-11-15T03:57:33.657Z,65.79
2022-11-15T04:00:01.244Z,65.60
2022-11-15T04:02:29.145Z,65.74
2022-11-15T04:04:56.682Z,65.81
2022-11-15T04:07:25.652Z,65.86
2022-11-15T04:10:06.229Z,65.92
2022-11-15T04:12:35.180Z,66.22
2022-11-15T04:15:10.978Z,66.41
2022-11-15T04:17:41.524Z,66.71
2022-11-15T04:20:29.543Z,66.67
2022-11-15T04:23:17.649Z,67.00
2022-11-15T04:25:46.319Z,67.24
2022-11-15T04:28:13.859Z,66.91
2022-11-15T04:30:41.461Z,67.19
2022-11-15T04:33:09.003Z,67.22
2022-11-15T04:35:36.796Z,67.22
2022-11-15T04:38:07.274Z,67.53
2022-11-15T04:40:35.126Z,67.23
2022-11-15T04:43:04.177Z,67.44
2022-11-15T04:45:32.442Z,67.70
2022-11-15T04:47:59.992Z,67.73
2022-11-15T04:50:27.553Z,67.95
2022-11-15T04:52:56.168Z,67.81
2022-11-15T04:55:24.981Z,67.79
2022-11-15T04:58:00.940Z,68.23
2022-11-15T05:00:29.912Z,68.07
2022-11-15T05:03:15.128Z,67.95
2022-11-15T05:05:42.670Z,67.71
2022-11-15T05:08:10.455Z,67.59
2022-11-15T05:10:39.321Z,67.54
2022-11-15T05:13:06.830Z,67.50
2022-11-15T05:15:34.332Z,67.30
2022-11-15T05:18:02.092Z,67.22
2022-11-15T05:20:29.595Z,67.28
2022-11-15T05:22:57.318Z,67.10
2022-11-15T05:25:25.047Z,67.19
2022-11-15T05:27:54.130Z,66.88
2022-11-15T05:30:22.015Z,66.83
2022-11-15T05:32:49.722Z,66.98
2022-11-15T05:35:23.541Z,67.19
2022-11-15T05:37:51.275Z,67.17
2022-11-15T05:40:19.080Z,67.25
2022-11-15T05:42:47.646Z,67.01
2022-11-15T05:45:18.496Z,66.84
2022-11-15T05:47:49.446Z,66.66
2022-11-15T05:50:20.386Z,66.95
2022-11-15T05:52:49.228Z,66.78
2022-11-15T05:55:17.243Z,66.93
2022-11-15T05:57:44.869Z,66.83
2022-11-15T06:00:13.616Z,66.61
2022-11-15T06:02:42.466Z,66.67
2022-11-15T06:05:10.049Z,66.60
2022-11-15T06:07:37.587Z,66.68
2022-11-15T06:10:05.700Z,66.58
2022-11-15T06:12:33.179Z,66.48
2022-11-15T06:15:00.686Z,66.25
2022-11-15T06:17:29.225Z,66.15
2022-11-15T06:19:58.062Z,66.12
2022-11-15T06:22:25.593Z,65.96
2022-11-15T06:24:54.915Z,65.95
2022-11-15T06:27:24.765Z,65.86
2022-11-15T06:39:25.467Z,66.20
2022-11-15T06:44:34.868Z,65.76
2022-11-15T06:47:02.513Z,65.66
2022-11-15T06:49:30.188Z,65.56
2022-11-15T07:08:19.491Z,65.13
2022-11-15T07:10:47.597Z,65.25
2022-11-15T07:13:18.260Z,64.98
2022-11-15T07:15:46.947Z,64.86
2022-11-15T07:18:19.578Z,64.56
2022-11-15T07:20:48.113Z,64.65
2022-11-15T07:23:17.784Z,64.40
2022-11-15T07:25:46.215Z,64.03
2022-11-15T07:28:16.262Z,64.27
2022-11-15T08:42:25.278Z,60.62
2022-11-15T08:50:35.122Z,59.71
2022-11-15T08:59:22.076Z,58.31
2022-11-15T09:01:51.241Z,57.67
2022-11-15T09:04:22.434Z,56.89
2022-11-15T09:06:55.040Z,55.95
2022-11-15T09:09:24.636Z,56.49
2022-11-15T09:15:14.840Z,54.37
2022-11-15T09:17:43.985Z,54.60
2022-11-15T09:20:20.029Z,53.16
2022-11-15T09:26:04.967Z,52.60
2022-11-15T10:29:55.565Z,44.18
2022-11-15T10:36:32.546Z,44.40
2022-11-15T10:53:31.600Z,42.89
2022-11-15T10:56:27.595Z,41.96
2022-11-15T10:59:01.630Z,42.07
2022-11-15T11:05:12.104Z,42.56
2022-11-15T12:04:04.449Z,44.52
2022-11-15T12:07:29.040Z,43.13
2022-11-15T12:10:58.906Z,43.22
2022-11-15T12:20:42.240Z,41.23
2022-11-15T12:24:08.605Z,41.48
2022-11-15T12:26:56.317Z,40.42
2022-11-15T12:33:19.154Z,40.47
2022-11-15T12:36:29.605Z,40.73
2022-11-15T12:42:44.596Z,41.36
2022-11-15T12:45:43.954Z,40.37
2022-11-15T12:49:04.545Z,41.56
2022-11-15T12:52:16.671Z,40.40
2022-11-15T14:02:44.964Z,42.28
2022-11-15T14:28:09.672Z,43.93
2022-11-15T14:30:59.372Z,43.77
2022-11-15T14:38:16.411Z,44.24
2022-11-15T14:42:04.830Z,44.36
2022-11-15T14:53:23.258Z,44.91
2022-11-15T15:06:17.485Z,45.13
2022-11-15T15:25:25.469Z,47.89
2022-11-15T15:27:53.065Z,47.93
2022-11-15T15:30:20.916Z,48.43
2022-11-15T15:32:48.425Z,48.81
2022-11-15T15:35:16.994Z,49.03
2022-11-15T15:37:45.802Z,49.35
2022-11-15T15:40:17.861Z,49.55
2022-11-15T15:42:45.707Z,49.57
2022-11-15T15:45:13.580Z,50.01
2022-11-15T15:47:41.430Z,50.09
2022-11-15T15:50:24.174Z,50.38
2022-11-15T15:52:52.527Z,50.41
2022-11-15T15:55:22.294Z,51.18
2022-11-15T15:57:50.434Z,51.16
2022-11-15T16:00:19.672Z,51.90
2022-11-15T16:02:47.772Z,52.05
2022-11-15T16:05:15.341Z,52.17
2022-11-15T16:07:44.168Z,52.54
2022-11-15T16:10:21.204Z,53.25
2022-11-15T16:12:50.217Z,53.18
2022-11-15T16:15:18.557Z,53.51
2022-11-15T16:17:49.531Z,53.90
2022-11-15T16:20:33.646Z,54.50
2022-11-15T16:23:07.353Z,54.37
2022-11-15T16:25:41.776Z,54.98
2022-11-15T16:28:18.553Z,55.28
2022-11-15T16:30:46.524Z,55.28
2022-11-15T16:33:14.259Z,55.57
2022-11-15T16:35:41.899Z,55.72
2022-11-15T16:38:16.226Z,56.28
2022-11-15T16:40:44.161Z,56.10
2022-11-15T16:43:11.793Z,56.27
2022-11-15T16:45:40.625Z,56.64
2022-11-15T16:48:08.300Z,56.51
2022-11-15T16:50:40.747Z,56.80
2022-11-15T16:53:08.754Z,56.87
2022-11-15T16:55:36.326Z,57.01
2022-11-15T16:58:03.853Z,56.95
2022-11-15T17:00:31.532Z,56.96
2022-11-15T17:03:00.460Z,57.23
2022-11-15T17:05:40.138Z,57.11
2022-11-15T17:14:10.568Z,57.16
2022-11-15T17:16:42.274Z,57.25
2022-11-15T17:19:18.323Z,57.67
2022-11-15T17:21:46.995Z,57.62
2022-11-15T17:24:14.567Z,57.71
2022-11-15T17:26:42.906Z,57.72
2022-11-15T17:29:10.683Z,57.73
2022-11-15T17:31:39.740Z,57.76
2022-11-15T17:34:08.902Z,58.02
2022-11-15T17:36:38.158Z,58.00
2022-11-15T17:39:08.982Z,58.07
2022-11-15T17:41:45.262Z,58.43
2022-11-15T17:44:27.338Z,58.35
2022-11-15T17:46:56.816Z,58.22
2022-11-15T17:49:25.827Z,59.83
2022-11-15T17:51:54.845Z,58.95
2022-11-15T17:54:22.416Z,58.93
2022-11-15T17:56:50.017Z,58.89
2022-11-15T17:59:21.316Z,58.89
2022-11-15T18:01:49.252Z,59.10
2022-11-15T18:04:16.836Z,59.31
2022-11-15T18:06:44.434Z,59.50
2022-11-15T18:09:13.537Z,59.91
2022-11-15T18:11:43.168Z,59.89
2022-11-15T18:14:14.938Z,60.30
2022-11-15T18:16:43.407Z,60.03
2022-11-15T18:19:13.573Z,60.23
2022-11-15T18:21:57.030Z,60.28
2022-11-15T18:24:28.153Z,60.47
2022-11-15T18:26:56.563Z,60.45
2022-11-15T18:29:25.497Z,60.57
2022-11-15T18:31:56.041Z,60.35
2022-11-15T18:34:24.537Z,60.39
2022-11-15T18:36:53.370Z,60.51
2022-11-15T18:39:21.278Z,60.40
2022-11-15T18:41:50.304Z,60.36
2022-11-15T18:44:18.718Z,60.42
2022-11-15T18:46:48.571Z,60.39
2022-11-15T18:49:19.592Z,60.44
2022-11-15T18:51:47.515Z,60.40
2022-11-15T18:54:18.076Z,60.63
2022-11-15T18:56:46.956Z,60.41
2022-11-15T18:59:16.622Z,60.38
2022-11-15T19:01:47.126Z,60.58
2022-11-15T19:04:17.444Z,60.51
2022-11-15T19:06:47.012Z,60.56
2022-11-15T19:09:16.393Z,60.71
2022-11-15T19:11:45.459Z,60.61
2022-11-15T19:14:14.797Z,60.76
2022-11-15T19:16:45.551Z,61.00
2022-11-15T19:19:15.626Z,60.86
2022-11-15T19:21:43.444Z,60.89
2022-11-15T19:24:11.428Z,61.13
2022-11-15T19:26:39.647Z,61.16
2022-11-15T19:29:10.177Z,61.17
2022-11-15T19:31:38.590Z,61.35
2022-11-15T19:34:08.030Z,61.34
2022-11-15T19:36:38.139Z,61.33
2022-11-15T19:39:09.580Z,61.54
2022-11-15T19:41:38.601Z,61.59
2022-11-15T19:44:06.454Z,61.72
2022-11-15T19:46:34.734Z,61.73
2022-11-15T19:49:02.755Z,61.88
2022-11-15T19:51:31.982Z,62.10
2022-11-15T19:54:06.134Z,62.08
2022-11-15T19:56:34.971Z,61.82
2022-11-15T19:59:03.245Z,62.15
2022-11-15T20:01:32.756Z,62.32
2022-11-15T20:04:01.353Z,62.17
2022-11-15T20:06:32.141Z,62.07
2022-11-15T20:09:00.002Z,62.37
2022-11-15T20:11:28.034Z,62.41
2022-11-15T20:13:58.335Z,62.48
2022-11-15T20:16:26.099Z,62.45
2022-11-15T20:18:53.980Z,62.79
2022-11-15T20:21:22.134Z,62.78
2022-11-15T20:23:51.635Z,63.08
2022-11-15T20:26:19.925Z,62.99
2022-11-15T20:28:48.165Z,63.01
2022-11-15T20:31:16.962Z,63.11
2022-11-15T20:33:45.008Z,63.14
2022-11-15T20:36:15.262Z,63.36
2022-11-15T20:38:43.367Z,63.34
2022-11-15T20:41:13.051Z,63.45
2022-11-15T20:43:43.250Z,63.41
2022-11-15T20:46:11.147Z,63.51
2022-11-15T20:48:38.710Z,63.48
2022-11-15T20:51:08.246Z,63.61
2022-11-15T20:53:36.240Z,63.36
2022-11-15T20:56:08.079Z,63.61
2022-11-15T21:03:56.782Z,63.73
